Flugplatz Schönhagen

Für EDAZ sind keine METAR/TAF Berichte vorhanden.
Es werden die Flugwettermeldungen vom Flugplatz Berlin-Schönefeld International in 31 km Entfernung angezeigt.

Bericht für EDDB

vom 16.10. um 09:20 UTC

Wind 7 kt aus 250°

Sichtweite 10 km oder mehr

gering bewölkt in 1000 ft

aufgebrochene Bewölkung in 3800 ft

Temperatur 10.0°C

Taupunkt 8.0°C

Luftfeuchtigkeit 87%

Luftdruck 1021 hPa

keine wesentliche Wetteränderung innerhalb den nächsten 2 Stunden zu erwarten

EDDB 160920Z 25007KT 9999 FEW010 BKN038 10/08 Q1021 NOSIG

Prognose für EDDB

vom 16.10. um 05:00 UTC

Zwischen 06:00 UTC und 06:00 UTC

Wind 7 kt aus 250°

Sichtweite 10 km oder mehr

aufgelockert bewölkt in 4000 ft


Zwischen 07:00 UTC und 09:00 UTC zeitweise mit einer Wahrscheinlichkeit von 30%

aufgebrochene Bewölkung in 900 ft


Zwischen 09:00 UTC und 11:00 UTC zeitweise mit einer Wahrscheinlichkeit von 40%

aufgebrochene Bewölkung in 1300 ft

TAF EDDB 160500Z 1606/1706 25007KT 9999 SCT040 PROB30 TEMPO 1607/1609 BKN009 PROB40 TEMPO 1609/1611 BKN013
Impressum